createdAt,value
2022-08-31T00:00:19.301Z,12.61
2022-08-31T00:00:52.469Z,12.61
2022-08-31T00:01:24.540Z,12.61
2022-08-31T00:01:47.460Z,12.61
2022-08-31T00:02:09.850Z,12.61
2022-08-31T00:02:46.416Z,12.61
2022-08-31T00:03:18.078Z,12.61
2022-08-31T00:03:49.589Z,12.61
2022-08-31T00:04:19.404Z,12.72
2022-08-31T00:04:53.131Z,12.72
2022-08-31T00:05:24.943Z,12.72
2022-08-31T00:05:47.730Z,12.72
2022-08-31T00:06:10.379Z,12.72
2022-08-31T00:06:45.195Z,12.72
2022-08-31T00:07:16.718Z,12.72
2022-08-31T00:07:49.094Z,12.72
2022-08-31T00:08:21.900Z,12.72
2022-08-31T00:08:52.559Z,12.72
2022-08-31T00:09:25.942Z,12.72
2022-08-31T00:09:48.944Z,12.72
2022-08-31T00:10:11.058Z,12.72
2022-08-31T00:10:44.990Z,12.61
2022-08-31T00:11:16.817Z,12.61
2022-08-31T00:11:49.021Z,12.61
2022-08-31T00:12:19.192Z,12.61
2022-08-31T00:12:57.576Z,12.61
2022-08-31T00:13:24.584Z,12.61
2022-08-31T00:13:47.161Z,12.61
2022-08-31T00:14:13.329Z,12.61
2022-08-31T00:14:44.901Z,12.61
2022-08-31T00:15:17.684Z,12.61
2022-08-31T00:15:48.400Z,12.61
2022-08-31T00:16:20.762Z,12.61
2022-08-31T00:16:52.780Z,12.50
2022-08-31T00:17:25.081Z,12.50
2022-08-31T00:17:47.757Z,12.50
2022-08-31T00:18:13.594Z,12.50
2022-08-31T00:18:45.523Z,12.50
2022-08-31T00:19:16.383Z,12.50
2022-08-31T00:19:48.597Z,12.50
2022-08-31T00:20:21.636Z,12.50
2022-08-31T00:20:54.338Z,12.50
2022-08-31T00:21:25.120Z,12.50
2022-08-31T00:21:47.741Z,12.50
2022-08-31T00:22:10.635Z,12.72
2022-08-31T00:22:50.275Z,12.38
2022-08-31T00:23:16.984Z,12.38
2022-08-31T00:23:48.769Z,12.38
2022-08-31T00:24:20.152Z,12.38
2022-08-31T00:24:53.386Z,12.61
2022-08-31T00:25:25.593Z,12.61
2022-08-31T00:25:48.308Z,12.61
2022-08-31T00:26:10.811Z,12.61
2022-08-31T00:26:44.660Z,12.38
2022-08-31T00:27:16.525Z,12.38
2022-08-31T00:27:49.051Z,12.38
2022-08-31T00:28:19.471Z,12.61
2022-08-31T00:28:52.509Z,12.61
2022-08-31T00:29:25.015Z,12.38
2022-08-31T00:29:47.490Z,12.38
2022-08-31T00:30:10.057Z,12.38
2022-08-31T00:30:44.673Z,12.38
2022-08-31T00:31:17.120Z,12.38
2022-08-31T00:31:48.553Z,12.38
2022-08-31T00:32:21.484Z,12.38
2022-08-31T00:32:52.585Z,12.38
2022-08-31T00:33:25.074Z,12.38
2022-08-31T00:33:47.636Z,12.38
2022-08-31T00:34:10.036Z,12.38
2022-08-31T00:34:44.574Z,12.50
2022-08-31T00:35:17.097Z,12.50
2022-08-31T00:35:50.186Z,12.50
2022-08-31T00:36:19.521Z,12.50
2022-08-31T00:36:52.583Z,12.50
2022-08-31T00:37:24.505Z,12.50
2022-08-31T00:37:47.277Z,12.50
2022-08-31T00:38:10.690Z,12.50
2022-08-31T00:38:45.071Z,12.50
2022-08-31T00:39:17.021Z,12.38
2022-08-31T00:39:48.460Z,12.38
2022-08-31T00:40:19.589Z,12.38
2022-08-31T00:40:52.596Z,12.38
2022-08-31T00:41:24.581Z,12.38
2022-08-31T00:41:47.446Z,12.38
2022-08-31T00:42:09.872Z,12.38
2022-08-31T00:42:44.484Z,12.38
2022-08-31T00:43:16.729Z,12.38
2022-08-31T00:43:48.989Z,12.38
2022-08-31T00:44:19.272Z,12.27
2022-08-31T00:44:52.593Z,12.27
2022-08-31T00:45:25.095Z,12.50
2022-08-31T00:45:47.275Z,12.50
2022-08-31T00:46:10.365Z,12.50
2022-08-31T00:46:44.787Z,12.50
2022-08-31T00:47:16.884Z,12.50
2022-08-31T00:47:49.499Z,12.50
2022-08-31T00:48:19.799Z,12.50
2022-08-31T00:48:52.469Z,12.50
2022-08-31T00:49:24.724Z,12.50
2022-08-31T00:49:47.938Z,12.50
2022-08-31T00:50:09.849Z,12.50
2022-08-31T00:50:45.260Z,12.50
2022-08-31T00:51:18.852Z,12.50
2022-08-31T00:51:48.545Z,12.50
2022-08-31T00:52:19.324Z,12.50
2022-08-31T00:52:52.448Z,12.38
2022-08-31T00:53:24.542Z,12.38
2022-08-31T00:53:47.297Z,12.38
2022-08-31T00:54:10.133Z,12.38
2022-08-31T00:54:44.796Z,12.38
2022-08-31T00:55:17.082Z,12.38
2022-08-31T00:55:48.412Z,12.38
2022-08-31T00:56:19.378Z,12.38
2022-08-31T00:56:52.342Z,12.38
2022-08-31T00:57:34.061Z,12.38
2022-08-31T00:57:47.601Z,12.38
2022-08-31T00:58:09.653Z,12.38
2022-08-31T00:58:44.898Z,12.38
2022-08-31T00:59:16.552Z,12.38
2022-08-31T00:59:49.246Z,12.38
2022-08-31T01:00:19.224Z,12.38
2022-08-31T01:00:52.709Z,12.38
2022-08-31T01:01:24.529Z,12.38
2022-08-31T01:01:47.298Z,12.38
2022-08-31T01:02:09.622Z,12.38
2022-08-31T01:02:46.258Z,12.38
2022-08-31T01:03:18.909Z,12.38
2022-08-31T01:03:48.637Z,12.38
2022-08-31T01:04:19.897Z,12.38
2022-08-31T01:04:52.795Z,12.38
2022-08-31T01:05:27.342Z,12.27
2022-08-31T01:05:47.568Z,12.27
2022-08-31T01:06:10.577Z,12.27
2022-08-31T01:06:45.646Z,12.27
2022-08-31T01:07:16.970Z,12.27
2022-08-31T01:07:48.945Z,12.27
2022-08-31T01:08:19.182Z,12.27
2022-08-31T01:08:52.548Z,12.27
2022-08-31T01:09:25.135Z,12.27
2022-08-31T01:09:55.346Z,12.27
2022-08-31T01:10:11.087Z,12.27
2022-08-31T01:10:44.582Z,12.27
2022-08-31T01:11:16.740Z,12.27
2022-08-31T01:11:48.406Z,12.27
2022-08-31T01:12:20.342Z,12.27
2022-08-31T01:12:56.345Z,12.27
2022-08-31T01:13:24.868Z,12.27
2022-08-31T01:13:47.331Z,12.27
2022-08-31T01:14:09.882Z,12.27
2022-08-31T01:14:45.205Z,12.27
2022-08-31T01:15:16.493Z,12.27
2022-08-31T01:15:50.398Z,12.27
2022-08-31T01:16:19.905Z,12.27
2022-08-31T01:16:52.460Z,12.27
2022-08-31T01:17:24.614Z,12.27
2022-08-31T01:17:47.324Z,12.27
2022-08-31T01:18:09.893Z,12.27
2022-08-31T01:18:44.486Z,12.27
2022-08-31T01:19:16.416Z,12.27
2022-08-31T01:19:48.433Z,12.27
2022-08-31T01:20:22.893Z,12.27
2022-08-31T01:20:52.882Z,12.27
2022-08-31T01:21:24.604Z,12.27
2022-08-31T01:21:47.490Z,12.27
2022-08-31T01:22:09.801Z,12.27
2022-08-31T01:22:44.988Z,12.27
2022-08-31T01:23:17.957Z,12.22
2022-08-31T01:23:48.619Z,12.22
2022-08-31T01:24:19.346Z,12.22
2022-08-31T01:24:52.748Z,12.22
2022-08-31T01:25:24.479Z,12.22
2022-08-31T01:25:47.157Z,12.22
2022-08-31T01:26:10.005Z,12.22
2022-08-31T01:26:44.545Z,12.22
2022-08-31T01:27:17.147Z,12.22
2022-08-31T01:27:48.592Z,12.22
2022-08-31T01:28:19.522Z,12.22
2022-08-31T01:28:52.401Z,12.22
2022-08-31T01:29:24.424Z,12.22
2022-08-31T01:29:47.122Z,12.22
2022-08-31T01:30:09.616Z,12.22
2022-08-31T01:30:44.429Z,12.22
2022-08-31T01:31:16.439Z,12.22
2022-08-31T01:31:56.787Z,12.22
2022-08-31T01:32:19.275Z,12.22
2022-08-31T01:32:52.741Z,12.22
2022-08-31T01:33:25.257Z,12.11
2022-08-31T01:33:47.733Z,12.11
2022-08-31T01:34:10.117Z,12.11
2022-08-31T01:34:44.454Z,12.11
2022-08-31T01:35:16.611Z,12.11
2022-08-31T01:35:48.687Z,12.11
2022-08-31T01:36:20.329Z,12.11
2022-08-31T01:36:52.817Z,12.11
2022-08-31T01:37:29.097Z,12.11
2022-08-31T01:37:47.517Z,12.11
2022-08-31T01:38:10.191Z,12.11
2022-08-31T01:38:44.610Z,12.11
2022-08-31T01:39:16.995Z,12.11
2022-08-31T01:39:49.185Z,12.00
2022-08-31T01:40:21.235Z,12.00
2022-08-31T01:40:53.263Z,12.00
2022-08-31T01:41:24.422Z,12.00
2022-08-31T01:41:47.203Z,12.00
2022-08-31T01:42:10.449Z,12.22
2022-08-31T01:42:44.575Z,12.00
2022-08-31T01:43:16.740Z,12.00
2022-08-31T01:43:48.589Z,12.00
2022-08-31T01:44:19.492Z,12.11
2022-08-31T01:44:52.372Z,12.11
2022-08-31T01:45:24.436Z,12.11
2022-08-31T01:45:47.209Z,12.11
2022-08-31T01:46:10.119Z,12.11
2022-08-31T01:46:45.390Z,12.11
2022-08-31T01:47:17.400Z,12.11
2022-08-31T01:47:48.500Z,12.11
2022-08-31T01:48:22.840Z,12.11
2022-08-31T01:48:54.193Z,12.00
2022-08-31T01:49:24.737Z,12.00
2022-08-31T01:49:48.546Z,12.00
2022-08-31T01:50:10.370Z,12.00
2022-08-31T01:50:45.281Z,12.00
2022-08-31T01:51:16.917Z,12.00
2022-08-31T01:51:48.412Z,12.00
2022-08-31T01:52:19.634Z,12.00
2022-08-31T01:52:52.875Z,12.00
2022-08-31T01:53:25.208Z,12.00
2022-08-31T01:53:48.523Z,12.00
2022-08-31T01:54:11.628Z,12.00
2022-08-31T01:54:44.893Z,12.00
2022-08-31T01:55:16.356Z,12.11
2022-08-31T01:55:52.162Z,12.11
2022-08-31T01:56:19.397Z,12.11
2022-08-31T01:56:53.301Z,12.11
2022-08-31T01:57:33.492Z,12.11
2022-08-31T01:57:47.142Z,12.11
2022-08-31T01:58:09.971Z,12.11
2022-08-31T01:58:45.234Z,12.11
2022-08-31T01:59:16.495Z,12.11
2022-08-31T01:59:48.235Z,12.11
2022-08-31T02:00:19.334Z,12.11
2022-08-31T02:00:52.927Z,12.11
2022-08-31T02:01:33.277Z,12.11
2022-08-31T02:01:47.280Z,12.11
2022-08-31T02:02:09.546Z,12.11
2022-08-31T02:02:50.554Z,12.11
2022-08-31T02:03:16.650Z,12.11
2022-08-31T02:03:49.302Z,12.11
2022-08-31T02:04:19.288Z,12.11
2022-08-31T02:04:52.482Z,12.11
2022-08-31T02:05:24.833Z,12.11
2022-08-31T02:05:47.059Z,12.11
2022-08-31T02:06:10.507Z,12.11
2022-08-31T02:06:44.614Z,12.11
2022-08-31T02:07:16.985Z,12.11
2022-08-31T02:07:48.604Z,12.11
2022-08-31T02:08:19.319Z,12.11
2022-08-31T02:08:52.683Z,12.11
2022-08-31T02:09:25.158Z,12.11
2022-08-31T02:09:47.876Z,12.11
2022-08-31T02:12:29.477Z,12.11
2022-08-31T02:12:51.033Z,12.11
2022-08-31T02:13:50.926Z,12.11
2022-08-31T02:14:28.686Z,12.11
2022-08-31T02:14:50.945Z,12.11
2022-08-31T02:15:15.421Z,12.11
2022-08-31T02:15:48.691Z,12.11
2022-08-31T02:16:20.173Z,12.11
2022-08-31T02:16:54.482Z,12.11
2022-08-31T02:17:26.536Z,12.11
2022-08-31T02:17:49.442Z,12.11
2022-08-31T02:18:12.113Z,12.11
2022-08-31T02:18:45.098Z,12.00
2022-08-31T02:19:16.463Z,12.00
2022-08-31T02:19:48.491Z,12.00
2022-08-31T02:20:19.451Z,12.00
2022-08-31T02:20:53.246Z,12.00
2022-08-31T02:21:24.987Z,12.00
2022-08-31T02:21:47.603Z,12.00
2022-08-31T02:22:13.501Z,12.00
2022-08-31T02:22:44.731Z,12.00
2022-08-31T02:23:18.107Z,12.00
2022-08-31T02:23:48.377Z,12.00
2022-08-31T02:24:22.836Z,12.00
2022-08-31T02:24:52.433Z,12.00
2022-08-31T02:25:25.585Z,12.00
2022-08-31T02:25:49.871Z,12.00
2022-08-31T02:26:11.043Z,12.00
2022-08-31T02:26:44.842Z,12.00
2022-08-31T02:27:16.809Z,12.00
2022-08-31T02:27:49.221Z,12.00
2022-08-31T02:28:19.274Z,12.00
2022-08-31T02:28:52.345Z,12.00
2022-08-31T02:29:24.270Z,12.00
2022-08-31T02:29:46.982Z,12.00
2022-08-31T02:30:09.827Z,12.00
2022-08-31T02:30:44.517Z,12.00
2022-08-31T02:31:16.457Z,12.00
2022-08-31T02:31:48.415Z,12.00
2022-08-31T02:32:20.334Z,12.00
2022-08-31T02:32:52.313Z,12.00
2022-08-31T02:33:25.107Z,12.00
2022-08-31T02:33:47.610Z,12.00
2022-08-31T02:34:12.606Z,11.88
2022-08-31T02:34:45.338Z,11.88
2022-08-31T02:35:16.340Z,11.88
2022-08-31T02:35:51.764Z,11.88
2022-08-31T02:36:19.410Z,11.88
2022-08-31T02:36:52.415Z,11.88
2022-08-31T02:37:25.126Z,11.88
2022-08-31T02:37:47.997Z,11.88
2022-08-31T02:38:11.052Z,11.88
2022-08-31T02:38:45.093Z,11.88
2022-08-31T02:39:17.128Z,11.88
2022-08-31T02:39:48.693Z,11.88
2022-08-31T02:40:20.003Z,11.88
2022-08-31T02:40:52.210Z,11.88
2022-08-31T02:41:24.520Z,11.77
2022-08-31T02:41:47.718Z,11.77
2022-08-31T02:42:09.672Z,11.77
2022-08-31T02:42:52.724Z,11.77
2022-08-31T02:43:24.440Z,11.77
2022-08-31T02:43:48.950Z,11.77
2022-08-31T02:44:19.187Z,11.77
2022-08-31T02:44:52.385Z,11.77
2022-08-31T02:45:24.455Z,11.77
2022-08-31T02:45:51.081Z,11.77
2022-08-31T02:46:09.979Z,11.72
2022-08-31T02:46:45.840Z,11.72
2022-08-31T02:47:16.618Z,11.72
2022-08-31T02:47:48.290Z,11.72
2022-08-31T02:48:19.331Z,11.72
2022-08-31T02:48:52.359Z,11.72
2022-08-31T02:49:26.960Z,11.61
2022-08-31T02:49:47.943Z,11.61
2022-08-31T02:50:10.350Z,11.61
2022-08-31T02:50:48.523Z,11.61
2022-08-31T02:51:16.340Z,11.77
2022-08-31T02:51:49.452Z,11.61
2022-08-31T02:52:19.324Z,11.77
2022-08-31T02:52:53.510Z,11.77
2022-08-31T02:53:24.930Z,11.77
2022-08-31T02:53:47.208Z,11.72
2022-08-31T02:54:10.299Z,11.72
2022-08-31T02:54:44.378Z,11.72
2022-08-31T02:55:16.777Z,11.72
2022-08-31T02:55:48.905Z,11.72
2022-08-31T02:56:20.018Z,11.72
2022-08-31T02:56:52.507Z,11.72
2022-08-31T02:57:30.683Z,11.72
2022-08-31T02:57:56.622Z,11.72
2022-08-31T02:58:28.823Z,11.61
2022-08-31T02:58:51.208Z,11.61
2022-08-31T02:59:14.396Z,11.61
2022-08-31T02:59:48.288Z,11.61
2022-08-31T03:00:19.327Z,11.61
2022-08-31T03:00:52.344Z,11.61
2022-08-31T03:01:24.340Z,11.61
2022-08-31T03:01:47.041Z,11.61
2022-08-31T03:02:09.358Z,11.50
2022-08-31T03:02:49.926Z,11.50
2022-08-31T03:03:16.384Z,11.50
2022-08-31T03:03:48.747Z,11.50
2022-08-31T03:04:20.703Z,11.50
2022-08-31T03:04:52.301Z,11.38
2022-08-31T03:05:24.434Z,11.38
2022-08-31T03:05:47.677Z,11.38
2022-08-31T03:06:09.940Z,11.38
2022-08-31T03:06:44.324Z,11.38
2022-08-31T03:07:16.441Z,11.38
2022-08-31T03:07:48.213Z,11.38
2022-08-31T03:08:19.233Z,11.27
2022-08-31T03:08:52.583Z,11.27
2022-08-31T03:09:24.530Z,11.27
2022-08-31T03:09:48.072Z,11.27
2022-08-31T03:10:10.021Z,11.27
2022-08-31T03:10:44.400Z,11.50
2022-08-31T03:11:16.290Z,11.27
2022-08-31T03:11:48.316Z,11.50
2022-08-31T03:12:24.837Z,11.50
2022-08-31T03:12:53.806Z,11.38
2022-08-31T03:13:24.279Z,11.38
2022-08-31T03:13:46.988Z,11.38
2022-08-31T03:14:09.457Z,11.38
2022-08-31T03:14:44.413Z,11.38
2022-08-31T03:15:16.449Z,11.38
2022-08-31T03:15:48.435Z,11.38
2022-08-31T03:16:19.305Z,11.38
2022-08-31T03:16:52.259Z,11.38
2022-08-31T03:17:24.460Z,11.38
2022-08-31T03:17:47.093Z,11.38
2022-08-31T03:18:09.543Z,11.38
2022-08-31T03:18:45.698Z,11.38
2022-08-31T03:19:16.313Z,11.38
2022-08-31T03:19:48.181Z,11.38
2022-08-31T03:20:19.433Z,11.38
2022-08-31T03:20:52.404Z,11.38
2022-08-31T03:21:24.820Z,11.38
2022-08-31T03:21:47.518Z,11.38
2022-08-31T03:22:10.145Z,11.38
2022-08-31T03:22:45.778Z,11.38
2022-08-31T03:23:16.905Z,11.38
2022-08-31T03:23:48.317Z,11.38
2022-08-31T03:24:19.782Z,11.38
2022-08-31T03:24:52.241Z,11.38
2022-08-31T03:25:24.328Z,11.38
2022-08-31T03:25:47.173Z,11.38
2022-08-31T03:26:09.406Z,11.38
2022-08-31T03:26:44.467Z,11.38
2022-08-31T03:27:18.747Z,11.38
2022-08-31T03:27:51.856Z,11.38
2022-08-31T03:28:19.210Z,11.38
2022-08-31T03:28:52.311Z,11.38
2022-08-31T03:29:24.183Z,11.38
2022-08-31T03:29:47.558Z,11.38
2022-08-31T03:30:09.980Z,11.27
2022-08-31T03:30:44.520Z,11.38
2022-08-31T03:31:16.223Z,11.27
2022-08-31T03:31:48.764Z,11.27
2022-08-31T03:32:19.306Z,11.27
2022-08-31T03:32:52.361Z,11.27
2022-08-31T03:33:24.328Z,11.27
2022-08-31T03:33:46.898Z,11.27
2022-08-31T03:34:09.849Z,11.27
2022-08-31T03:34:44.800Z,11.27
2022-08-31T03:35:16.613Z,11.27
2022-08-31T03:35:48.165Z,11.27
2022-08-31T03:36:19.323Z,11.22
2022-08-31T03:36:52.703Z,11.22
2022-08-31T03:37:24.338Z,11.22
2022-08-31T03:37:47.388Z,11.22
2022-08-31T03:38:09.784Z,11.22
2022-08-31T03:38:45.818Z,11.22
2022-08-31T03:39:17.767Z,11.22
2022-08-31T03:39:48.249Z,11.22
2022-08-31T03:40:20.770Z,11.22
2022-08-31T03:40:52.366Z,11.22
2022-08-31T03:41:24.288Z,11.22
2022-08-31T03:41:50.910Z,11.22
2022-08-31T03:42:09.678Z,11.22
2022-08-31T03:42:44.220Z,11.11
2022-08-31T03:43:16.252Z,11.11
2022-08-31T03:43:48.170Z,11.11
2022-08-31T03:44:19.614Z,11.11
2022-08-31T03:44:52.191Z,11.11
2022-08-31T03:45:24.316Z,11.11
2022-08-31T03:45:47.124Z,11.11
2022-08-31T03:46:12.070Z,11.11
2022-08-31T03:46:45.961Z,11.11
2022-08-31T03:47:16.148Z,11.11
2022-08-31T03:47:48.265Z,11.11
2022-08-31T03:48:19.368Z,11.11
2022-08-31T03:48:52.475Z,11.11
2022-08-31T03:49:24.338Z,11.27
2022-08-31T03:49:46.955Z,11.11
2022-08-31T03:50:09.298Z,11.27
2022-08-31T03:50:44.155Z,11.27
2022-08-31T03:51:16.277Z,11.11
2022-08-31T03:51:48.155Z,11.27
2022-08-31T03:52:19.359Z,11.11
2022-08-31T03:52:52.210Z,11.27
2022-08-31T03:53:24.666Z,11.27
2022-08-31T03:53:47.058Z,11.27
2022-08-31T03:54:10.973Z,11.27
2022-08-31T03:54:45.755Z,11.27
2022-08-31T03:55:16.254Z,11.27
2022-08-31T03:55:48.249Z,11.27
2022-08-31T03:56:19.713Z,11.27
2022-08-31T03:56:52.674Z,11.27
2022-08-31T03:57:24.227Z,11.11
2022-08-31T03:57:47.156Z,11.11
2022-08-31T03:58:09.471Z,11.11
2022-08-31T03:58:47.072Z,11.22
2022-08-31T03:59:16.104Z,11.22
2022-08-31T03:59:48.259Z,11.22
2022-08-31T04:00:19.268Z,11.22
2022-08-31T04:00:52.236Z,11.22
2022-08-31T04:01:24.328Z,11.22
2022-08-31T04:01:47.118Z,11.22
2022-08-31T04:02:09.415Z,11.22
2022-08-31T04:02:50.045Z,11.11
2022-08-31T04:03:17.822Z,11.11
2022-08-31T04:03:48.224Z,11.11
2022-08-31T04:04:19.249Z,11.11
2022-08-31T04:04:52.315Z,11.11
2022-08-31T04:05:24.133Z,11.11
2022-08-31T04:05:46.843Z,11.11
2022-08-31T04:06:09.407Z,11.11
2022-08-31T04:06:46.765Z,11.11
2022-08-31T04:07:16.797Z,11.11
2022-08-31T04:07:48.106Z,11.11
2022-08-31T04:08:19.323Z,11.27
2022-08-31T04:08:52.348Z,11.11
2022-08-31T04:09:24.660Z,11.11
2022-08-31T04:09:47.636Z,11.11
2022-08-31T04:10:10.143Z,11.11
2022-08-31T04:10:44.298Z,11.11
2022-08-31T04:11:16.455Z,11.11
2022-08-31T04:11:48.147Z,11.11
2022-08-31T04:12:20.753Z,11.27
2022-08-31T04:12:52.403Z,11.27
2022-08-31T04:13:30.053Z,11.11
2022-08-31T04:13:47.675Z,11.11
2022-08-31T04:14:09.931Z,11.27
2022-08-31T04:14:44.272Z,11.27
2022-08-31T04:15:16.995Z,11.27
2022-08-31T04:15:48.563Z,11.27
2022-08-31T04:16:19.417Z,11.27
2022-08-31T04:16:52.441Z,11.27
2022-08-31T04:17:24.174Z,11.27
2022-08-31T04:17:47.634Z,11.27
2022-08-31T04:18:09.657Z,11.27
2022-08-31T04:18:44.360Z,11.27
2022-08-31T04:19:16.236Z,11.27
2022-08-31T04:19:48.154Z,11.27
2022-08-31T04:20:19.403Z,11.27
2022-08-31T04:20:53.646Z,11.22
2022-08-31T04:21:24.298Z,11.22
2022-08-31T04:21:47.321Z,11.22
2022-08-31T04:22:09.979Z,11.22
2022-08-31T04:22:44.388Z,11.22
2022-08-31T04:23:16.886Z,11.22
2022-08-31T04:23:48.130Z,11.22
2022-08-31T04:24:19.549Z,11.22
2022-08-31T04:24:52.366Z,11.22
2022-08-31T04:25:24.870Z,11.22
2022-08-31T04:25:50.481Z,11.22
2022-08-31T04:26:31.810Z,11.22
2022-08-31T04:26:51.465Z,11.22
2022-08-31T04:27:17.174Z,11.22
2022-08-31T04:27:48.206Z,11.22
2022-08-31T04:28:14.295Z,11.22
2022-08-31T04:28:55.050Z,11.22
2022-08-31T04:29:25.409Z,11.22
2022-08-31T04:29:48.181Z,11.22
2022-08-31T04:30:10.993Z,11.22
2022-08-31T04:30:44.452Z,11.22
2022-08-31T04:31:16.324Z,11.22
2022-08-31T04:31:48.402Z,11.22
2022-08-31T04:32:19.847Z,11.22
2022-08-31T04:32:52.862Z,11.22
2022-08-31T04:33:26.138Z,11.22
2022-08-31T04:33:48.590Z,11.11
2022-08-31T04:34:12.222Z,11.11
2022-08-31T04:34:44.354Z,11.11
2022-08-31T04:35:16.469Z,11.11
2022-08-31T04:35:48.786Z,11.11
2022-08-31T04:36:20.366Z,11.22
2022-08-31T04:36:52.637Z,11.22
2022-08-31T04:37:24.252Z,11.22
2022-08-31T04:37:47.162Z,11.22
2022-08-31T04:38:10.229Z,11.22
2022-08-31T04:38:44.446Z,11.22
2022-08-31T04:39:17.383Z,11.22
2022-08-31T04:39:50.396Z,11.22
2022-08-31T04:40:20.500Z,11.22
2022-08-31T04:40:52.696Z,11.22
2022-08-31T04:41:24.450Z,11.22
2022-08-31T04:41:47.243Z,11.22
2022-08-31T04:42:10.424Z,11.22
2022-08-31T04:42:44.364Z,11.22
2022-08-31T04:43:21.242Z,11.22
2022-08-31T04:43:48.906Z,11.22
2022-08-31T04:44:20.445Z,11.22
2022-08-31T04:44:52.396Z,11.22
2022-08-31T04:45:24.308Z,11.22
2022-08-31T04:45:47.015Z,11.22
2022-08-31T04:46:10.263Z,11.22
2022-08-31T04:46:44.594Z,11.22
2022-08-31T04:47:18.947Z,11.22
2022-08-31T04:47:48.263Z,11.22
2022-08-31T04:48:19.419Z,11.27
2022-08-31T04:48:52.397Z,11.27
2022-08-31T04:49:24.998Z,11.27
2022-08-31T04:49:47.757Z,11.27
2022-08-31T04:50:10.815Z,11.27
2022-08-31T04:50:44.486Z,11.27
2022-08-31T04:51:17.507Z,11.27
2022-08-31T04:51:48.163Z,11.27
2022-08-31T04:52:19.466Z,11.38
2022-08-31T04:53:03.311Z,11.38
2022-08-31T04:53:24.384Z,11.38
2022-08-31T04:53:47.054Z,11.38
2022-08-31T04:54:09.533Z,11.38
2022-08-31T04:54:45.217Z,11.38
2022-08-31T04:55:17.787Z,11.22
2022-08-31T04:55:48.798Z,11.22
2022-08-31T04:56:19.391Z,11.22
2022-08-31T04:56:52.385Z,11.22
2022-08-31T04:57:24.333Z,11.27
2022-08-31T04:57:47.001Z,11.27
2022-08-31T04:58:09.483Z,11.27
2022-08-31T04:58:44.464Z,11.27
2022-08-31T04:59:17.642Z,11.27
2022-08-31T04:59:48.148Z,11.27
2022-08-31T05:00:19.814Z,11.27
2022-08-31T05:00:52.882Z,11.27
2022-08-31T05:01:24.355Z,11.38
2022-08-31T05:01:47.130Z,11.38
2022-08-31T05:02:09.765Z,11.38
2022-08-31T05:02:52.214Z,11.38
2022-08-31T05:03:16.567Z,11.38
2022-08-31T05:03:48.306Z,11.38
2022-08-31T05:04:19.382Z,11.38
2022-08-31T05:04:52.626Z,11.38
2022-08-31T05:05:24.203Z,11.38
2022-08-31T05:05:47.037Z,11.38
2022-08-31T05:06:09.699Z,11.50
2022-08-31T05:06:44.325Z,11.27
2022-08-31T05:07:16.331Z,11.27
2022-08-31T05:07:48.213Z,11.27
2022-08-31T05:08:19.587Z,11.27
2022-08-31T05:08:52.241Z,11.27
2022-08-31T05:09:24.236Z,11.27
2022-08-31T05:09:47.579Z,11.27
2022-08-31T05:10:09.890Z,11.27
2022-08-31T05:10:44.239Z,11.38
2022-08-31T05:11:16.395Z,11.38
2022-08-31T05:11:48.121Z,11.38
2022-08-31T05:12:19.302Z,11.38
2022-08-31T05:12:52.348Z,11.38
2022-08-31T05:13:24.281Z,11.38
2022-08-31T05:13:47.098Z,11.38
2022-08-31T05:14:09.421Z,11.38
2022-08-31T05:14:44.510Z,11.38
2022-08-31T05:15:16.485Z,11.38
2022-08-31T05:15:48.215Z,11.50
2022-08-31T05:16:20.868Z,11.50
2022-08-31T05:16:52.153Z,11.50
2022-08-31T05:17:24.221Z,11.50
2022-08-31T05:17:47.165Z,11.50
2022-08-31T05:18:09.483Z,11.50
2022-08-31T05:18:44.617Z,11.61
2022-08-31T05:19:19.737Z,11.61
2022-08-31T05:19:48.189Z,11.61
2022-08-31T05:20:19.529Z,11.50
2022-08-31T05:20:52.469Z,11.50
2022-08-31T05:21:24.137Z,11.50
2022-08-31T05:21:48.478Z,11.50
2022-08-31T05:22:10.854Z,11.50
2022-08-31T05:22:44.763Z,11.50
2022-08-31T05:23:11.980Z,11.50
2022-08-31T05:23:49.561Z,11.50
2022-08-31T05:24:19.913Z,11.50
2022-08-31T05:24:52.481Z,11.50
2022-08-31T05:25:24.327Z,11.50
2022-08-31T05:25:46.974Z,11.50
2022-08-31T05:26:09.487Z,11.50
2022-08-31T05:26:44.366Z,11.50
2022-08-31T05:27:16.936Z,11.61
2022-08-31T05:27:48.306Z,11.61
2022-08-31T05:28:20.306Z,11.61
2022-08-31T05:28:52.305Z,11.61
2022-08-31T05:29:24.799Z,11.61
2022-08-31T05:29:47.642Z,11.72
2022-08-31T05:30:10.235Z,11.72
2022-08-31T05:30:45.246Z,11.61
2022-08-31T05:31:16.965Z,11.61
2022-08-31T05:31:52.237Z,11.61
2022-08-31T05:32:19.686Z,11.61
2022-08-31T05:32:52.206Z,11.61
2022-08-31T05:33:24.858Z,11.61
2022-08-31T05:33:47.016Z,11.72
2022-08-31T05:34:10.171Z,11.72
2022-08-31T05:34:45.253Z,11.72
2022-08-31T05:35:16.610Z,11.72
2022-08-31T05:35:48.354Z,11.72
2022-08-31T05:36:19.380Z,11.72
2022-08-31T05:36:52.849Z,11.72
2022-08-31T05:37:24.948Z,11.72
2022-08-31T05:37:48.924Z,11.72
2022-08-31T05:38:09.968Z,11.77
2022-08-31T05:38:46.418Z,11.61
2022-08-31T05:39:17.928Z,11.61
2022-08-31T05:39:49.078Z,11.61
2022-08-31T05:40:19.677Z,11.61
2022-08-31T05:40:52.635Z,11.61
2022-08-31T05:41:24.161Z,11.61
2022-08-31T05:41:47.002Z,11.72
2022-08-31T05:42:15.421Z,11.72
2022-08-31T05:42:44.838Z,11.72
2022-08-31T05:43:16.322Z,11.72
2022-08-31T05:43:48.074Z,11.72
2022-08-31T05:44:19.903Z,11.77
2022-08-31T05:44:52.094Z,11.77
2022-08-31T05:45:27.800Z,11.77
2022-08-31T05:45:50.194Z,11.77
2022-08-31T05:46:32.088Z,11.77
2022-08-31T05:46:52.400Z,11.77
2022-08-31T05:47:13.841Z,11.77
2022-08-31T05:47:48.703Z,11.77
2022-08-31T05:48:19.442Z,11.88
2022-08-31T05:48:52.297Z,11.88
2022-08-31T05:49:24.194Z,11.88
2022-08-31T05:49:47.041Z,11.88
2022-08-31T05:50:09.469Z,11.88
2022-08-31T05:50:44.413Z,11.88
2022-08-31T05:51:16.432Z,11.77
2022-08-31T05:51:48.358Z,11.77
2022-08-31T05:52:19.864Z,11.77
2022-08-31T05:52:52.216Z,11.77
2022-08-31T05:53:25.286Z,11.77
2022-08-31T05:53:48.321Z,11.77
2022-08-31T05:54:10.822Z,11.77
2022-08-31T05:54:44.805Z,11.88
2022-08-31T05:55:16.206Z,11.88
2022-08-31T05:55:48.230Z,11.88
2022-08-31T05:56:19.425Z,12.00
2022-08-31T05:56:52.811Z,12.00
2022-08-31T05:57:26.667Z,12.00
2022-08-31T05:57:47.370Z,12.00
2022-08-31T05:58:09.683Z,12.00
2022-08-31T05:58:44.373Z,12.00
2022-08-31T05:59:16.569Z,11.77
2022-08-31T05:59:48.082Z,11.77
2022-08-31T06:00:19.489Z,11.77
2022-08-31T06:00:52.156Z,11.88
2022-08-31T06:01:24.311Z,11.88
2022-08-31T06:01:46.984Z,11.88
2022-08-31T06:02:11.231Z,11.88
2022-08-31T06:02:54.080Z,11.88
2022-08-31T06:03:16.360Z,11.88
2022-08-31T06:03:48.617Z,11.88
2022-08-31T06:04:20.202Z,11.88
2022-08-31T06:04:52.385Z,11.88
2022-08-31T06:05:24.248Z,11.88
2022-08-31T06:05:46.890Z,11.88
2022-08-31T06:06:13.489Z,11.88
2022-08-31T06:06:44.507Z,12.00
2022-08-31T06:07:19.374Z,12.00
2022-08-31T06:07:48.306Z,12.00
2022-08-31T06:08:19.724Z,12.00
2022-08-31T06:08:52.765Z,12.00
2022-08-31T06:09:25.115Z,12.00
2022-08-31T06:09:47.780Z,12.00
2022-08-31T06:10:10.196Z,12.00
2022-08-31T06:10:45.634Z,12.00
2022-08-31T06:11:16.202Z,12.00
2022-08-31T06:11:48.734Z,12.11
2022-08-31T06:12:20.039Z,12.11
2022-08-31T06:12:54.645Z,12.11
2022-08-31T06:13:24.634Z,11.88
2022-08-31T06:13:46.910Z,11.88
2022-08-31T06:14:09.943Z,12.00
2022-08-31T06:14:47.064Z,12.00
2022-08-31T06:15:16.430Z,12.00
2022-08-31T06:15:49.518Z,12.00
2022-08-31T06:16:20.496Z,12.11
2022-08-31T06:16:52.617Z,12.11
2022-08-31T06:17:24.507Z,12.11
2022-08-31T06:17:47.092Z,12.11
2022-08-31T06:18:09.516Z,12.11
2022-08-31T06:18:44.673Z,12.11
2022-08-31T06:19:16.186Z,12.11
2022-08-31T06:19:48.027Z,12.11
2022-08-31T06:20:20.029Z,12.11
2022-08-31T06:20:53.006Z,12.11
2022-08-31T06:21:24.213Z,12.11
2022-08-31T06:21:49.186Z,12.11
2022-08-31T06:22:09.847Z,12.11
2022-08-31T06:22:44.319Z,12.11
2022-08-31T06:23:18.226Z,12.11
2022-08-31T06:23:48.802Z,12.11
2022-08-31T06:24:23.795Z,12.11
2022-08-31T06:24:52.268Z,12.11
2022-08-31T06:25:25.618Z,12.11
2022-08-31T06:25:48.062Z,12.11
2022-08-31T06:26:11.810Z,12.11
2022-08-31T06:26:44.382Z,12.22
2022-08-31T06:27:16.753Z,12.22
2022-08-31T06:27:52.313Z,12.22
2022-08-31T06:28:15.160Z,12.22
2022-08-31T06:28:52.414Z,12.22